Language selection

My Weather Profile Weather Topics  | 

Atlantic - Labrador: Past 24 Hour Conditions

 

Kangiqsualujjuaq Airport

07:00 PM EST 05 February 2023
Disclaimer

This table is a summary of hourly weather conditions for the past 24 hours.
Please note that these observations might not always be representative of weather conditions over their associated marine area.

Date / Time
(EST)
Wind(knots) Conditions Visibility(km) Pressure(kPa) Air tempC) Relative humidity(%) Dew pointC) Wind Chill
05 February 2023
19:00 SSW 12 gust 19 N/A N/A 101.0 -32 66 -36 -46
18:00 SSW 14 gust 23 N/A N/A 101.0 -31 66 -36 -46
17:00 SSW 12 gust 19 N/A N/A 100.9 -31 67 -35 -45
16:00 S 11 gust 21 N/A N/A 100.8 -31 65 -36 -45
15:00 S 10 N/A N/A 100.8 -32 63 -36 -45
14:00 S 5 gust 17 N/A N/A 100.7 -32 64 -36 -41
13:00 S 9 gust 15 N/A N/A 100.7 -32 64 -37 -44
12:00 S 11 N/A N/A 100.6 -32 63 -37 -46
11:00 S 10 N/A N/A 100.6 -33 66 -37 -46
10:00 SSW 14 N/A N/A 100.6 -33 65 -37 -49
9:00 S 10 N/A N/A 100.6 -33 67 -37 -46
8:00 S 9 gust 16 N/A N/A 100.6 -33 65 -37 -45
7:00 S 9 gust 16 N/A N/A 100.6 -33 65 -37 -45
6:00 SSW 10 gust 16 N/A N/A 100.6 -33 65 -37 -46
5:00 S 11 gust 17 N/A N/A 100.6 -33 64 -37 -47
4:00 SSE 10 gust 18 N/A N/A 100.6 -33 65 -37 -46
3:00 SSE 12 gust 19 N/A N/A 100.7 -33 64 -37 -47
2:00 SE 13 gust 19 N/A N/A 100.7 -33 63 -38 -48
1:00 SSE 9 gust 17 N/A N/A 100.8 -33 63 -37 -45
0:00 SSW 11 gust 19 N/A N/A 100.8 -33 66 -37 -47
04 February 2023
23:00 SSE 10 gust 18 N/A N/A 100.9 -33 67 -37 -46
22:00 SW 8 N/A N/A 100.9 -32 65 -36 -43
21:00 SW 11 N/A N/A 100.9 -32 67 -36 -46
20:00 W 7 N/A N/A 100.8 -30 70 -34 -40
19:00 W 11 gust 17 N/A N/A 100.8 -29 70 -33 -42

Zoom-in to make a selection

Map of Atlantic - Labrador marine weather areas Kangiqsualujjuaq Airport Cape Kakkiviak Cape Kiglapait Cartwright Airport CFB Goose Bay Hopedale Mary's Harbour Nain Airport Makkovik Airport Saglek Tukialik Bay
Legend:
buoy Buoy
land station Land Station

Atlantic - Labrador Area

Another Region

What we are doing

Date modified: